sensor_id;sensor_type;location;lat;lon;timestamp;pressure;altitude;pressure_sealevel;temperature;humidity
74218;BME280;62579;47.288;18.646;2023-04-01T00:00:44;98537.91;;;9.81;94.93
74218;BME280;62579;47.288;18.646;2023-04-01T00:03:09;98538.84;;;9.71;95.41
74218;BME280;62579;47.288;18.646;2023-04-01T00:05:34;98539.88;;;9.81;95.00
74218;BME280;62579;47.288;18.646;2023-04-01T00:08:00;98528.19;;;9.86;94.57
74218;BME280;62579;47.288;18.646;2023-04-01T00:10:25;98524.31;;;9.81;94.51
74218;BME280;62579;47.288;18.646;2023-04-01T00:12:51;98538.84;;;9.84;94.37
74218;BME280;62579;47.288;18.646;2023-04-01T00:15:16;98541.03;;;9.85;94.12
74218;BME280;62579;47.288;18.646;2023-04-01T00:17:41;98525.16;;;9.76;94.61
74218;BME280;62579;47.288;18.646;2023-04-01T00:20:06;98522.94;;;9.75;94.89
74218;BME280;62579;47.288;18.646;2023-04-01T00:22:32;98517.00;;;9.76;94.91
74218;BME280;62579;47.288;18.646;2023-04-01T00:24:58;98517.13;;;9.71;95.18
74218;BME280;62579;47.288;18.646;2023-04-01T00:27:24;98515.94;;;9.79;94.87
74218;BME280;62579;47.288;18.646;2023-04-01T00:29:49;98508.03;;;9.68;95.21
74218;BME280;62579;47.288;18.646;2023-04-01T00:32:15;98502.59;;;9.68;94.89
74218;BME280;62579;47.288;18.646;2023-04-01T00:34:40;98509.38;;;9.75;94.51
74218;BME280;62579;47.288;18.646;2023-04-01T00:37:06;98511.03;;;9.64;95.09
74218;BME280;62579;47.288;18.646;2023-04-01T00:39:32;98518.06;;;9.73;94.80
74218;BME280;62579;47.288;18.646;2023-04-01T00:41:58;98515.53;;;9.75;94.28
74218;BME280;62579;47.288;18.646;2023-04-01T00:44:24;98509.91;;;9.73;94.45
74218;BME280;62579;47.288;18.646;2023-04-01T00:46:50;98503.19;;;9.74;94.30
74218;BME280;62579;47.288;18.646;2023-04-01T00:49:15;98516.78;;;9.74;94.47
74218;BME280;62579;47.288;18.646;2023-04-01T00:51:42;98521.59;;;9.68;94.70
74218;BME280;62579;47.288;18.646;2023-04-01T00:54:08;98526.50;;;9.70;94.93
74218;BME280;62579;47.288;18.646;2023-04-01T00:56:37;98521.59;;;9.68;94.94
74218;BME280;62579;47.288;18.646;2023-04-01T00:59:12;98510.09;;;9.62;95.36
74218;BME280;62579;47.288;18.646;2023-04-01T01:01:38;98517.22;;;9.65;95.05
74218;BME280;62579;47.288;18.646;2023-04-01T01:04:03;98519.69;;;9.63;95.01
74218;BME280;62579;47.288;18.646;2023-04-01T01:12:18;98516.69;;;9.66;94.18
74218;BME280;62579;47.288;18.646;2023-04-01T01:16:51;98514.78;;;9.61;94.25
74218;BME280;62579;47.288;18.646;2023-04-01T01:22:09;98509.78;;;9.65;94.09
74218;BME280;62579;47.288;18.646;2023-04-01T01:24:49;98505.41;;;9.62;94.13
74218;BME280;62579;47.288;18.646;2023-04-01T01:27:19;98507.47;;;9.56;93.92
74218;BME280;62579;47.288;18.646;2023-04-01T01:37:59;98502.47;;;9.74;91.71
74218;BME280;62579;47.288;18.646;2023-04-01T01:40:26;98503.44;;;9.76;91.66
74218;BME280;62579;47.288;18.646;2023-04-01T01:42:53;98504.97;;;9.72;91.22
74218;BME280;62579;47.288;18.646;2023-04-01T01:45:21;98503.09;;;9.66;91.50
74218;BME280;62579;47.288;18.646;2023-04-01T01:47:47;98499.53;;;9.72;91.23
74218;BME280;62579;47.288;18.646;2023-04-01T01:50:13;98504.88;;;9.64;91.37
74218;BME280;62579;47.288;18.646;2023-04-01T01:52:40;98510.41;;;9.72;90.75
74218;BME280;62579;47.288;18.646;2023-04-01T01:55:22;98515.84;;;9.72;91.19
74218;BME280;62579;47.288;18.646;2023-04-01T01:57:48;98503.09;;;9.66;91.63
74218;BME280;62579;47.288;18.646;2023-04-01T02:00:14;98497.75;;;9.61;91.26
74218;BME280;62579;47.288;18.646;2023-04-01T02:02:40;98495.03;;;9.48;92.06
74218;BME280;62579;47.288;18.646;2023-04-01T02:05:08;98497.56;;;9.59;91.19
74218;BME280;62579;47.288;18.646;2023-04-01T02:07:35;98490.56;;;9.50;91.21
74218;BME280;62579;47.288;18.646;2023-04-01T02:10:01;98494.94;;;9.40;90.70
74218;BME280;62579;47.288;18.646;2023-04-01T02:12:26;98490.16;;;9.46;90.72
74218;BME280;62579;47.288;18.646;2023-04-01T02:14:55;98491.69;;;9.55;90.37
74218;BME280;62579;47.288;18.646;2023-04-01T02:17:23;98492.03;;;9.51;90.38
74218;BME280;62579;47.288;18.646;2023-04-01T02:20:02;98487.44;;;9.59;90.01
74218;BME280;62579;47.288;18.646;2023-04-01T02:22:31;98487.72;;;9.56;90.49
74218;BME280;62579;47.288;18.646;2023-04-01T02:24:57;98485.03;;;9.56;90.23
74218;BME280;62579;47.288;18.646;2023-04-01T02:27:23;98481.56;;;9.55;89.97
74218;BME280;62579;47.288;18.646;2023-04-01T02:29:49;98483.53;;;9.55;89.91
74218;BME280;62579;47.288;18.646;2023-04-01T02:32:14;98488.03;;;9.52;89.82
74218;BME280;62579;47.288;18.646;2023-04-01T02:34:41;98489.31;;;9.51;89.54
74218;BME280;62579;47.288;18.646;2023-04-01T02:37:07;98500.56;;;9.42;89.60
74218;BME280;62579;47.288;18.646;2023-04-01T02:39:32;98498.87;;;9.39;89.81
74218;BME280;62579;47.288;18.646;2023-04-01T02:41:58;98499.09;;;9.41;89.46
74218;BME280;62579;47.288;18.646;2023-04-01T02:44:23;98500.03;;;9.31;89.54
74218;BME280;62579;47.288;18.646;2023-04-01T02:46:48;98494.28;;;9.34;88.78
74218;BME280;62579;47.288;18.646;2023-04-01T02:49:14;98497.00;;;9.34;88.90
74218;BME280;62579;47.288;18.646;2023-04-01T02:51:39;98499.63;;;9.40;88.63
74218;BME280;62579;47.288;18.646;2023-04-01T02:54:05;98497.66;;;9.40;88.64
74218;BME280;62579;47.288;18.646;2023-04-01T02:56:30;98486.78;;;9.40;88.77
74218;BME280;62579;47.288;18.646;2023-04-01T02:58:55;98489.06;;;9.36;88.91
74218;BME280;62579;47.288;18.646;2023-04-01T03:01:20;98479.69;;;9.37;88.84
74218;BME280;62579;47.288;18.646;2023-04-01T03:03:46;98484.66;;;9.33;88.84
74218;BME280;62579;47.288;18.646;2023-04-01T03:06:12;98490.31;;;9.22;89.20
74218;BME280;62579;47.288;18.646;2023-04-01T03:08:38;98491.47;;;9.27;89.33
74218;BME280;62579;47.288;18.646;2023-04-01T03:11:03;98493.03;;;9.22;89.59
74218;BME280;62579;47.288;18.646;2023-04-01T03:13:30;98495.22;;;9.24;89.54
74218;BME280;62579;47.288;18.646;2023-04-01T03:15:55;98510.66;;;9.16;90.10
74218;BME280;62579;47.288;18.646;2023-04-01T03:18:20;98509.06;;;9.07;90.70
74218;BME280;62579;47.288;18.646;2023-04-01T03:20:45;98510.81;;;9.04;90.71
74218;BME280;62579;47.288;18.646;2023-04-01T03:23:10;98514.34;;;8.99;90.97
74218;BME280;62579;47.288;18.646;2023-04-01T03:25:36;98510.25;;;8.93;91.44
74218;BME280;62579;47.288;18.646;2023-04-01T03:28:01;98510.16;;;8.98;91.16
74218;BME280;62579;47.288;18.646;2023-04-01T03:30:27;98507.25;;;8.96;91.19
74218;BME280;62579;47.288;18.646;2023-04-01T03:32:52;98508.72;;;8.97;90.86
74218;BME280;62579;47.288;18.646;2023-04-01T03:35:18;98504.12;;;8.92;91.13
74218;BME280;62579;47.288;18.646;2023-04-01T03:37:43;98508.94;;;8.99;90.74
74218;BME280;62579;47.288;18.646;2023-04-01T03:40:09;98510.25;;;8.93;90.92
74218;BME280;62579;47.288;18.646;2023-04-01T03:42:34;98510.50;;;8.95;90.90
74218;BME280;62579;47.288;18.646;2023-04-01T03:45:00;98508.94;;;8.99;90.63
74218;BME280;62579;47.288;18.646;2023-04-01T03:47:25;98513.03;;;9.06;90.31
74218;BME280;62579;47.288;18.646;2023-04-01T03:49:50;98513.03;;;9.06;90.24
74218;BME280;62579;47.288;18.646;2023-04-01T03:52:16;98521.47;;;9.02;90.37
74218;BME280;62579;47.288;18.646;2023-04-01T03:54:41;98519.69;;;9.05;90.24
74218;BME280;62579;47.288;18.646;2023-04-01T03:57:06;98521.47;;;9.02;90.44
74218;BME280;62579;47.288;18.646;2023-04-01T03:59:31;98514.87;;;8.98;90.35
74218;BME280;62579;47.288;18.646;2023-04-01T04:01:56;98512.28;;;9.05;89.79
74218;BME280;62579;47.288;18.646;2023-04-01T04:04:22;98511.34;;;9.03;90.01
74218;BME280;62579;47.288;18.646;2023-04-01T04:06:47;98510.62;;;9.02;89.84
74218;BME280;62579;47.288;18.646;2023-04-01T04:09:13;98512.50;;;9.07;89.15
74218;BME280;62579;47.288;18.646;2023-04-01T04:11:38;98502.47;;;9.02;89.42
74218;BME280;62579;47.288;18.646;2023-04-01T04:14:03;98494.50;;;8.91;89.34
74218;BME280;62579;47.288;18.646;2023-04-01T04:16:29;98506.66;;;9.03;88.58
74218;BME280;62579;47.288;18.646;2023-04-01T04:18:54;98504.06;;;9.11;87.95
74218;BME280;62579;47.288;18.646;2023-04-01T04:21:19;98500.16;;;9.06;88.07
74218;BME280;62579;47.288;18.646;2023-04-01T04:23:44;98509.50;;;9.11;87.77
74218;BME280;62579;47.288;18.646;2023-04-01T04:26:11;98507.37;;;9.04;87.92
74218;BME280;62579;47.288;18.646;2023-04-01T04:28:36;98502.59;;;9.10;87.69
74218;BME280;62579;47.288;18.646;2023-04-01T04:31:02;98500.50;;;9.03;87.80
74218;BME280;62579;47.288;18.646;2023-04-01T04:33:27;98501.72;;;9.02;87.86
74218;BME280;62579;47.288;18.646;2023-04-01T04:35:54;98504.25;;;9.00;87.82
74218;BME280;62579;47.288;18.646;2023-04-01T04:38:20;98504.44;;;9.02;87.64
74218;BME280;62579;47.288;18.646;2023-04-01T04:40:45;98503.12;;;9.09;87.26
74218;BME280;62579;47.288;18.646;2023-04-01T04:43:11;98507.91;;;9.02;87.38
74218;BME280;62579;47.288;18.646;2023-04-01T04:45:36;98507.69;;;9.00;87.42
74218;BME280;62579;47.288;18.646;2023-04-01T04:48:02;98510.62;;;9.02;87.30
74218;BME280;62579;47.288;18.646;2023-04-01T04:50:27;98510.72;;;9.10;86.77
74218;BME280;62579;47.288;18.646;2023-04-01T04:52:52;98505.31;;;9.10;86.74
74218;BME280;62579;47.288;18.646;2023-04-01T04:55:17;98513.16;;;9.14;86.75
74218;BME280;62579;47.288;18.646;2023-04-01T04:57:43;98514.00;;;9.22;86.72
74218;BME280;62579;47.288;18.646;2023-04-01T05:00:08;98511.59;;;9.18;86.95
74218;BME280;62579;47.288;18.646;2023-04-01T05:02:35;98518.25;;;9.17;87.03
74218;BME280;62579;47.288;18.646;2023-04-01T05:05:00;98515.28;;;9.34;86.41
74218;BME280;62579;47.288;18.646;2023-04-01T05:07:25;98514.13;;;9.29;86.84
74218;BME280;62579;47.288;18.646;2023-04-01T05:09:50;98521.75;;;9.31;86.55
74218;BME280;62579;47.288;18.646;2023-04-01T05:12:16;98518.09;;;9.41;86.36
74218;BME280;62579;47.288;18.646;2023-04-01T05:14:41;98523.13;;;9.37;86.57
74218;BME280;62579;47.288;18.646;2023-04-01T05:17:10;98521.56;;;9.42;86.17
74218;BME280;62579;47.288;18.646;2023-04-01T05:19:35;98522.94;;;9.48;85.83
74218;BME280;62579;47.288;18.646;2023-04-01T05:22:01;98523.66;;;9.36;86.55
74218;BME280;62579;47.288;18.646;2023-04-01T05:24:26;98527.72;;;9.42;86.87
74218;BME280;62579;47.288;18.646;2023-04-01T05:26:51;98525.44;;;9.46;86.31
74218;BME280;62579;47.288;18.646;2023-04-01T05:29:16;98526.28;;;9.54;85.66
74218;BME280;62579;47.288;18.646;2023-04-01T05:31:41;98525.66;;;9.48;85.26
74218;BME280;62579;47.288;18.646;2023-04-01T05:34:07;98531.94;;;9.56;83.03
74218;BME280;62579;47.288;18.646;2023-04-01T05:36:32;98530.56;;;9.63;83.67
74218;BME280;62579;47.288;18.646;2023-04-01T05:38:57;98520.88;;;9.68;83.75
74218;BME280;62579;47.288;18.646;2023-04-01T05:41:22;98533.72;;;9.67;83.71
74218;BME280;62579;47.288;18.646;2023-04-01T05:43:48;98532.56;;;9.76;83.57
74218;BME280;62579;47.288;18.646;2023-04-01T05:46:13;98524.53;;;9.83;83.30
74218;BME280;62579;47.288;18.646;2023-04-01T05:48:38;98521.38;;;9.79;83.32
74218;BME280;62579;47.288;18.646;2023-04-01T05:51:03;98518.56;;;9.85;83.36
74218;BME280;62579;47.288;18.646;2023-04-01T05:53:29;98528.06;;;9.91;82.78
74218;BME280;62579;47.288;18.646;2023-04-01T05:55:54;98522.94;;;9.88;83.53
74218;BME280;62579;47.288;18.646;2023-04-01T05:58:19;98527.88;;;9.89;83.30
74218;BME280;62579;47.288;18.646;2023-04-01T06:00:45;98520.13;;;9.93;82.68
74218;BME280;62579;47.288;18.646;2023-04-01T06:03:10;98523.28;;;9.84;83.12
74218;BME280;62579;47.288;18.646;2023-04-01T06:05:42;98519.00;;;9.89;82.32
74218;BME280;62579;47.288;18.646;2023-04-01T06:08:12;98524.13;;;9.92;82.12
74218;BME280;62579;47.288;18.646;2023-04-01T06:10:50;98534.03;;;10.03;82.01
74218;BME280;62579;47.288;18.646;2023-04-01T06:20:51;98530.69;;;10.10;81.12
74218;BME280;62579;47.288;18.646;2023-04-01T06:44:22;98543.28;;;10.47;81.73
74218;BME280;62579;47.288;18.646;2023-04-01T06:46:57;98543.59;;;10.56;80.01
74218;BME280;62579;47.288;18.646;2023-04-01T06:54:31;98547.72;;;10.70;79.04
74218;BME280;62579;47.288;18.646;2023-04-01T06:56:59;98552.34;;;10.75;80.86
74218;BME280;62579;47.288;18.646;2023-04-01T06:59:27;98552.06;;;10.86;82.10
74218;BME280;62579;47.288;18.646;2023-04-01T07:02:00;98550.38;;;10.97;78.95
74218;BME280;62579;47.288;18.646;2023-04-01T07:09:38;98553.78;;;11.10;76.91
74218;BME280;62579;47.288;18.646;2023-04-01T07:12:29;98563.41;;;11.32;75.20
74218;BME280;62579;47.288;18.646;2023-04-01T07:14:49;98559.09;;;11.36;76.48
74218;BME280;62579;47.288;18.646;2023-04-01T07:17:22;98561.19;;;11.51;75.91
74218;BME280;62579;47.288;18.646;2023-04-01T07:22:32;98561.84;;;11.65;75.95
74218;BME280;62579;47.288;18.646;2023-04-01T07:25:01;98565.75;;;11.69;74.71
74218;BME280;62579;47.288;18.646;2023-04-01T07:27:27;98568.56;;;11.84;75.32
74218;BME280;62579;47.288;18.646;2023-04-01T07:29:52;98567.34;;;11.93;75.34
74218;BME280;62579;47.288;18.646;2023-04-01T07:32:27;98557.56;;;11.97;73.83
74218;BME280;62579;47.288;18.646;2023-04-01T07:37:33;98569.41;;;12.07;73.22
74218;BME280;62579;47.288;18.646;2023-04-01T07:40:06;98570.50;;;12.04;73.18
74218;BME280;62579;47.288;18.646;2023-04-01T07:50:13;98559.03;;;12.34;74.00
74218;BME280;62579;47.288;18.646;2023-04-01T07:52:55;98569.22;;;12.34;72.99
74218;BME280;62579;47.288;18.646;2023-04-01T07:55:36;98577.94;;;12.40;72.41
74218;BME280;62579;47.288;18.646;2023-04-01T08:00:52;98571.81;;;12.47;69.94
74218;BME280;62579;47.288;18.646;2023-04-01T08:03:28;98565.19;;;12.35;71.66
74218;BME280;62579;47.288;18.646;2023-04-01T08:10:57;98568.00;;;12.50;70.33
74218;BME280;62579;47.288;18.646;2023-04-01T08:21:19;98572.50;;;12.40;71.36
74218;BME280;62579;47.288;18.646;2023-04-01T08:23:47;98569.53;;;12.23;69.41
74218;BME280;62579;47.288;18.646;2023-04-01T08:26:20;98578.66;;;12.33;69.75
74218;BME280;62579;47.288;18.646;2023-04-01T08:33:52;98574.53;;;12.47;69.68
74218;BME280;62579;47.288;18.646;2023-04-01T08:36:27;98573.19;;;12.33;70.86
74218;BME280;62579;47.288;18.646;2023-04-01T08:39:03;98569.06;;;12.39;71.38
74218;BME280;62579;47.288;18.646;2023-04-01T08:57:06;98567.13;;;12.55;68.87
74218;BME280;62579;47.288;18.646;2023-04-01T09:02:18;98577.31;;;12.62;69.05
74218;BME280;62579;47.288;18.646;2023-04-01T09:12:51;98564.81;;;12.74;67.64
74218;BME280;62579;47.288;18.646;2023-04-01T09:20:58;98549.47;;;13.22;70.98
74218;BME280;62579;47.288;18.646;2023-04-01T09:25:58;98546.91;;;13.24;67.25
74218;BME280;62579;47.288;18.646;2023-04-01T09:28:42;98555.28;;;13.26;66.50
74218;BME280;62579;47.288;18.646;2023-04-01T09:44:24;98560.22;;;13.65;66.77
74218;BME280;62579;47.288;18.646;2023-04-01T09:52:24;98552.91;;;13.53;65.51
74218;BME280;62579;47.288;18.646;2023-04-01T09:54:56;98571.34;;;13.60;64.99
74218;BME280;62579;47.288;18.646;2023-04-01T10:16:11;98564.56;;;13.83;64.58
74218;BME280;62579;47.288;18.646;2023-04-01T10:31:24;98566.59;;;13.38;67.53
74218;BME280;62579;47.288;18.646;2023-04-01T10:47:11;98569.50;;;13.77;65.61
74218;BME280;62579;47.288;18.646;2023-04-01T11:00:18;98561.47;;;13.87;64.84
74218;BME280;62579;47.288;18.646;2023-04-01T11:15:58;98558.19;;;13.89;63.65
74218;BME280;62579;47.288;18.646;2023-04-01T11:18:36;98555.94;;;14.10;62.23
74218;BME280;62579;47.288;18.646;2023-04-01T11:31:23;98568.59;;;13.90;62.72
74218;BME280;62579;47.288;18.646;2023-04-01T11:34:05;98566.22;;;13.87;63.95
74218;BME280;62579;47.288;18.646;2023-04-01T11:41:37;98559.47;;;13.80;62.94
74218;BME280;62579;47.288;18.646;2023-04-01T11:44:15;98556.34;;;13.91;64.18
74218;BME280;62579;47.288;18.646;2023-04-01T11:46:48;98565.66;;;13.96;63.69
74218;BME280;62579;47.288;18.646;2023-04-01T11:49:33;98557.06;;;13.99;62.28
74218;BME280;62579;47.288;18.646;2023-04-01T11:54:28;98550.28;;;14.15;59.44
74218;BME280;62579;47.288;18.646;2023-04-01T12:02:14;98569.22;;;14.36;59.81
74218;BME280;62579;47.288;18.646;2023-04-01T12:04:46;98562.47;;;14.29;60.38
74218;BME280;62579;47.288;18.646;2023-04-01T12:10:15;98554.63;;;14.33;58.67
74218;BME280;62579;47.288;18.646;2023-04-01T12:12:46;98555.19;;;14.32;59.86
74218;BME280;62579;47.288;18.646;2023-04-01T12:23:18;98563.56;;;14.74;57.71
74218;BME280;62579;47.288;18.646;2023-04-01T12:25:59;98556.09;;;14.74;56.44
74218;BME280;62579;47.288;18.646;2023-04-01T12:28:39;98563.25;;;14.70;57.39
74218;BME280;62579;47.288;18.646;2023-04-01T12:33:52;98565.41;;;14.79;56.64
74218;BME280;62579;47.288;18.646;2023-04-01T12:36:35;98564.12;;;14.72;56.68
74218;BME280;62579;47.288;18.646;2023-04-01T12:49:23;98553.19;;;15.04;57.23
74218;BME280;62579;47.288;18.646;2023-04-01T13:00:03;98564.84;;;15.37;57.06
74218;BME280;62579;47.288;18.646;2023-04-01T13:07:33;98554.41;;;15.36;54.86
74218;BME280;62579;47.288;18.646;2023-04-01T13:12:34;98553.94;;;15.30;57.13
74218;BME280;62579;47.288;18.646;2023-04-01T13:20:23;98552.56;;;15.46;55.80
74218;BME280;62579;47.288;18.646;2023-04-01T13:25:44;98557.16;;;15.36;53.31
74218;BME280;62579;47.288;18.646;2023-04-01T13:28:23;98560.91;;;15.23;54.68
74218;BME280;62579;47.288;18.646;2023-04-01T13:44:16;98562.97;;;15.15;55.07
74218;BME280;62579;47.288;18.646;2023-04-01T13:54:37;98552.37;;;15.86;54.58
74218;BME280;62579;47.288;18.646;2023-04-01T14:02:41;98545.66;;;15.62;55.39
74218;BME280;62579;47.288;18.646;2023-04-01T14:10:22;98543.88;;;15.74;51.46
74218;BME280;62579;47.288;18.646;2023-04-01T14:13:06;98534.12;;;15.63;52.18
74218;BME280;62579;47.288;18.646;2023-04-01T14:20:45;98531.09;;;15.94;53.29
74218;BME280;62579;47.288;18.646;2023-04-01T14:23:32;98526.31;;;15.77;53.52
74218;BME280;62579;47.288;18.646;2023-04-01T14:29:26;98529.31;;;15.89;50.67
74218;BME280;62579;47.288;18.646;2023-04-01T14:47:53;98542.78;;;15.03;55.01
74218;BME280;62579;47.288;18.646;2023-04-01T14:50:24;98540.97;;;14.98;56.74
74218;BME280;62579;47.288;18.646;2023-04-01T14:52:55;98539.19;;;14.93;56.53
74218;BME280;62579;47.288;18.646;2023-04-01T14:58:12;98546.00;;;15.17;55.71
74218;BME280;62579;47.288;18.646;2023-04-01T15:00:44;98550.75;;;15.41;54.83
74218;BME280;62579;47.288;18.646;2023-04-01T15:08:23;98546.66;;;15.49;51.82
74218;BME280;62579;47.288;18.646;2023-04-01T15:10:57;98538.53;;;15.34;54.09
74218;BME280;62579;47.288;18.646;2023-04-01T15:36:59;98541.72;;;14.98;52.18
74218;BME280;62579;47.288;18.646;2023-04-01T15:47:39;98549.28;;;15.40;51.51
74218;BME280;62579;47.288;18.646;2023-04-01T15:55:20;98560.56;;;15.51;51.32
74218;BME280;62579;47.288;18.646;2023-04-01T16:00:23;98570.63;;;15.41;51.20
74218;BME280;62579;47.288;18.646;2023-04-01T16:02:54;98569.50;;;15.20;51.53
74218;BME280;62579;47.288;18.646;2023-04-01T16:13:00;98575.00;;;14.87;53.52
74218;BME280;62579;47.288;18.646;2023-04-01T16:15:34;98572.19;;;14.70;53.65
74218;BME280;62579;47.288;18.646;2023-04-01T16:23:22;98582.59;;;14.64;54.01
74218;BME280;62579;47.288;18.646;2023-04-01T16:28:32;98579.53;;;14.53;54.98
74218;BME280;62579;47.288;18.646;2023-04-01T16:31:00;98588.69;;;14.48;53.13
74218;BME280;62579;47.288;18.646;2023-04-01T16:35:58;98586.50;;;14.54;53.53
74218;BME280;62579;47.288;18.646;2023-04-01T16:43:28;98591.28;;;14.23;54.65
74218;BME280;62579;47.288;18.646;2023-04-01T16:45:58;98591.13;;;14.13;55.39
74218;BME280;62579;47.288;18.646;2023-04-01T16:48:45;98600.81;;;14.07;55.63
74218;BME280;62579;47.288;18.646;2023-04-01T16:51:17;98593.19;;;13.90;56.23
74218;BME280;62579;47.288;18.646;2023-04-01T16:53:43;98596.84;;;13.93;55.74
74218;BME280;62579;47.288;18.646;2023-04-01T16:56:12;98598.66;;;13.82;56.40
74218;BME280;62579;47.288;18.646;2023-04-01T17:01:09;98598.69;;;13.52;58.04
74218;BME280;62579;47.288;18.646;2023-04-01T17:03:47;98604.28;;;13.32;58.49
74218;BME280;62579;47.288;18.646;2023-04-01T17:06:31;98609.00;;;13.16;58.66
74218;BME280;62579;47.288;18.646;2023-04-01T17:11:49;98616.09;;;13.11;59.09
74218;BME280;62579;47.288;18.646;2023-04-01T17:16:56;98616.22;;;12.98;59.22
74218;BME280;62579;47.288;18.646;2023-04-01T17:40:11;98649.19;;;12.64;60.08
74218;BME280;62579;47.288;18.646;2023-04-01T17:42:42;98645.09;;;12.43;60.70
74218;BME280;62579;47.288;18.646;2023-04-01T17:48:15;98653.94;;;12.28;61.21
74218;BME280;62579;47.288;18.646;2023-04-01T17:55:48;98667.84;;;12.17;62.55
74218;BME280;62579;47.288;18.646;2023-04-01T17:58:19;98664.94;;;12.15;62.25
74218;BME280;62579;47.288;18.646;2023-04-01T18:06:14;98678.56;;;12.15;61.30
74218;BME280;62579;47.288;18.646;2023-04-01T18:09:01;98683.34;;;12.22;60.53
74218;BME280;62579;47.288;18.646;2023-04-01T18:16:40;98689.47;;;12.43;58.37
74218;BME280;62579;47.288;18.646;2023-04-01T18:19:27;98687.03;;;12.32;58.68
74218;BME280;62579;47.288;18.646;2023-04-01T18:22:08;98692.31;;;12.30;58.54
74218;BME280;62579;47.288;18.646;2023-04-01T18:24:42;98693.62;;;12.37;58.51
74218;BME280;62579;47.288;18.646;2023-04-01T18:27:17;98701.97;;;12.31;58.58
74218;BME280;62579;47.288;18.646;2023-04-01T18:29:46;98704.78;;;12.18;58.95
74218;BME280;62579;47.288;18.646;2023-04-01T18:32:31;98707.97;;;12.09;59.18
74218;BME280;62579;47.288;18.646;2023-04-01T18:37:45;98710.69;;;12.09;58.82
74218;BME280;62579;47.288;18.646;2023-04-01T18:47:50;98714.09;;;12.02;58.99
74218;BME280;62579;47.288;18.646;2023-04-01T18:50:22;98716.16;;;12.09;58.65
74218;BME280;62579;47.288;18.646;2023-04-01T18:52:49;98721.56;;;12.01;58.83
74218;BME280;62579;47.288;18.646;2023-04-01T18:55:39;98713.56;;;12.03;58.95
74218;BME280;62579;47.288;18.646;2023-04-01T19:00:40;98714.03;;;11.94;59.06
74218;BME280;62579;47.288;18.646;2023-04-01T19:05:45;98719.81;;;11.91;59.25
74218;BME280;62579;47.288;18.646;2023-04-01T19:08:20;98725.66;;;11.95;59.37
74218;BME280;62579;47.288;18.646;2023-04-01T19:26:20;98731.66;;;11.26;64.44
74218;BME280;62579;47.288;18.646;2023-04-01T19:28:52;98748.78;;;11.13;64.85
74218;BME280;62579;47.288;18.646;2023-04-01T19:34:07;98743.41;;;10.95;65.00
74218;BME280;62579;47.288;18.646;2023-04-01T19:39:18;98756.75;;;10.72;65.69
74218;BME280;62579;47.288;18.646;2023-04-01T19:46:53;98758.97;;;10.15;68.31
74218;BME280;62579;47.288;18.646;2023-04-01T19:52:22;98761.69;;;9.97;68.88
74218;BME280;62579;47.288;18.646;2023-04-01T19:55:03;98759.16;;;9.86;69.39
74218;BME280;62579;47.288;18.646;2023-04-01T19:57:46;98775.66;;;9.88;69.33
74218;BME280;62579;47.288;18.646;2023-04-01T20:00:20;98777.81;;;9.95;68.18
74218;BME280;62579;47.288;18.646;2023-04-01T20:03:03;98766.97;;;10.08;67.31
74218;BME280;62579;47.288;18.646;2023-04-01T20:13:21;98761.44;;;10.45;65.39
74218;BME280;62579;47.288;18.646;2023-04-01T20:16:04;98768.84;;;10.45;65.20
74218;BME280;62579;47.288;18.646;2023-04-01T20:23:55;98773.13;;;10.40;65.64
74218;BME280;62579;47.288;18.646;2023-04-01T20:26:23;98776.69;;;10.35;65.43
74218;BME280;62579;47.288;18.646;2023-04-01T20:31:21;98773.16;;;10.53;65.12
74218;BME280;62579;47.288;18.646;2023-04-01T20:33:53;98770.62;;;10.55;65.19
74218;BME280;62579;47.288;18.646;2023-04-01T20:44:12;98783.31;;;10.53;65.54
74218;BME280;62579;47.288;18.646;2023-04-01T20:51:54;98802.53;;;10.42;66.45
74218;BME280;62579;47.288;18.646;2023-04-01T20:59:34;98795.81;;;10.30;67.73
74218;BME280;62579;47.288;18.646;2023-04-01T21:04:37;98796.53;;;10.11;68.96
74218;BME280;62579;47.288;18.646;2023-04-01T21:17:42;98819.56;;;10.10;69.43
74218;BME280;62579;47.288;18.646;2023-04-01T21:25:20;98824.00;;;9.95;70.57
74218;BME280;62579;47.288;18.646;2023-04-01T21:30:38;98816.81;;;9.79;71.71
74218;BME280;62579;47.288;18.646;2023-04-01T21:33:22;98822.59;;;9.88;71.58
74218;BME280;62579;47.288;18.646;2023-04-01T21:41:13;98822.25;;;9.79;73.06
74218;BME280;62579;47.288;18.646;2023-04-01T21:43:57;98827.03;;;9.73;73.37
74218;BME280;62579;47.288;18.646;2023-04-01T21:49:07;98822.59;;;9.70;73.84
74218;BME280;62579;47.288;18.646;2023-04-01T21:51:53;98819.22;;;9.63;74.42
74218;BME280;62579;47.288;18.646;2023-04-01T22:07:37;98822.47;;;9.81;74.05
74218;BME280;62579;47.288;18.646;2023-04-01T22:10:21;98826.56;;;9.68;74.69
74218;BME280;62579;47.288;18.646;2023-04-01T22:18:31;98826.22;;;9.78;74.25
74218;BME280;62579;47.288;18.646;2023-04-01T22:23:56;98833.63;;;9.77;74.34
74218;BME280;62579;47.288;18.646;2023-04-01T22:31:36;98829.34;;;9.63;74.94
74218;BME280;62579;47.288;18.646;2023-04-01T22:36:37;98830.75;;;9.70;74.59
74218;BME280;62579;47.288;18.646;2023-04-01T22:43:56;98840.88;;;9.69;75.13
74218;BME280;62579;47.288;18.646;2023-04-01T22:46:55;98846.97;;;9.56;75.84
74218;BME280;62579;47.288;18.646;2023-04-01T22:51:49;98842.66;;;9.66;75.36
74218;BME280;62579;47.288;18.646;2023-04-01T22:56:48;98856.75;;;9.65;75.32
74218;BME280;62579;47.288;18.646;2023-04-01T22:59:20;98868.56;;;9.68;74.98
74218;BME280;62579;47.288;18.646;2023-04-01T23:01:53;98858.81;;;9.78;74.73
74218;BME280;62579;47.288;18.646;2023-04-01T23:04:21;98883.91;;;9.65;75.48
74218;BME280;62579;47.288;18.646;2023-04-01T23:06:49;98871.84;;;9.60;75.60
74218;BME280;62579;47.288;18.646;2023-04-01T23:09:20;98871.38;;;9.62;75.87
74218;BME280;62579;47.288;18.646;2023-04-01T23:16:57;98874.66;;;9.55;76.54